sensor_id;sensor_type;location;lat;lon;timestamp;P1;durP1;ratioP1;P2;durP2;ratioP2
39924;SDS011;25592;49.986;11.618;2022-08-21T00:01:49;43.90;;;17.08;;
39924;SDS011;25592;49.986;11.618;2022-08-21T00:04:34;35.17;;;18.45;;
39924;SDS011;25592;49.986;11.618;2022-08-21T00:07:31;34.13;;;19.10;;
39924;SDS011;25592;49.986;11.618;2022-08-21T00:10:18;27.25;;;18.10;;
39924;SDS011;25592;49.986;11.618;2022-08-21T00:13:04;23.20;;;16.05;;
39924;SDS011;25592;49.986;11.618;2022-08-21T00:15:50;39.25;;;18.90;;
39924;SDS011;25592;49.986;11.618;2022-08-21T00:18:36;32.20;;;18.58;;
39924;SDS011;25592;49.986;11.618;2022-08-21T00:21:21;55.25;;;18.98;;
39924;SDS011;25592;49.986;11.618;2022-08-21T00:24:07;34.80;;;19.90;;
39924;SDS011;25592;49.986;11.618;2022-08-21T00:26:53;35.10;;;18.00;;
39924;SDS011;25592;49.986;11.618;2022-08-21T00:29:38;31.92;;;19.55;;
39924;SDS011;25592;49.986;11.618;2022-08-21T00:32:24;45.10;;;19.63;;
39924;SDS011;25592;49.986;11.618;2022-08-21T00:35:13;33.97;;;20.60;;
39924;SDS011;25592;49.986;11.618;2022-08-21T00:38:01;28.60;;;18.83;;
39924;SDS011;25592;49.986;11.618;2022-08-21T00:40:56;30.77;;;19.27;;
39924;SDS011;25592;49.986;11.618;2022-08-21T00:43:57;27.08;;;16.63;;
39924;SDS011;25592;49.986;11.618;2022-08-21T00:46:42;27.40;;;18.45;;
39924;SDS011;25592;49.986;11.618;2022-08-21T00:49:28;29.20;;;18.20;;
39924;SDS011;25592;49.986;11.618;2022-08-21T00:52:15;23.92;;;16.60;;
39924;SDS011;25592;49.986;11.618;2022-08-21T00:55:06;22.15;;;16.45;;
39924;SDS011;25592;49.986;11.618;2022-08-21T00:57:55;22.15;;;15.55;;
39924;SDS011;25592;49.986;11.618;2022-08-21T01:00:43;21.20;;;13.73;;
39924;SDS011;25592;49.986;11.618;2022-08-21T01:03:31;19.60;;;12.90;;
39924;SDS011;25592;49.986;11.618;2022-08-21T01:06:18;15.82;;;11.93;;
39924;SDS011;25592;49.986;11.618;2022-08-21T01:09:04;18.67;;;13.57;;
39924;SDS011;25592;49.986;11.618;2022-08-21T01:11:49;20.33;;;13.30;;
39924;SDS011;25592;49.986;11.618;2022-08-21T01:14:35;20.75;;;14.38;;
39924;SDS011;25592;49.986;11.618;2022-08-21T01:17:21;20.00;;;13.38;;
39924;SDS011;25592;49.986;11.618;2022-08-21T01:20:08;24.52;;;13.90;;
39924;SDS011;25592;49.986;11.618;2022-08-21T01:22:55;20.88;;;14.13;;
39924;SDS011;25592;49.986;11.618;2022-08-21T01:25:41;16.73;;;12.48;;
39924;SDS011;25592;49.986;11.618;2022-08-21T01:28:26;18.08;;;13.20;;
39924;SDS011;25592;49.986;11.618;2022-08-21T01:31:15;21.52;;;13.90;;
39924;SDS011;25592;49.986;11.618;2022-08-21T01:34:10;19.52;;;12.30;;
39924;SDS011;25592;49.986;11.618;2022-08-21T01:36:56;19.45;;;13.80;;
39924;SDS011;25592;49.986;11.618;2022-08-21T01:39:42;22.05;;;14.15;;
39924;SDS011;25592;49.986;11.618;2022-08-21T01:42:27;24.52;;;14.15;;
39924;SDS011;25592;49.986;11.618;2022-08-21T01:45:13;21.80;;;14.77;;
39924;SDS011;25592;49.986;11.618;2022-08-21T01:48:00;24.75;;;14.98;;
39924;SDS011;25592;49.986;11.618;2022-08-21T01:50:45;23.02;;;14.18;;
39924;SDS011;25592;49.986;11.618;2022-08-21T01:53:36;21.02;;;15.02;;
39924;SDS011;25592;49.986;11.618;2022-08-21T01:56:21;26.38;;;16.60;;
39924;SDS011;25592;49.986;11.618;2022-08-21T01:59:07;24.83;;;15.73;;
39924;SDS011;25592;49.986;11.618;2022-08-21T02:01:53;23.55;;;16.83;;
39924;SDS011;25592;49.986;11.618;2022-08-21T02:04:38;22.58;;;15.77;;
39924;SDS011;25592;49.986;11.618;2022-08-21T02:07:24;23.75;;;15.52;;
39924;SDS011;25592;49.986;11.618;2022-08-21T02:10:12;27.48;;;17.65;;
39924;SDS011;25592;49.986;11.618;2022-08-21T02:12:59;20.80;;;14.27;;
39924;SDS011;25592;49.986;11.618;2022-08-21T02:15:45;29.67;;;19.23;;
39924;SDS011;25592;49.986;11.618;2022-08-21T02:18:31;28.13;;;18.45;;
39924;SDS011;25592;49.986;11.618;2022-08-21T02:21:16;26.13;;;17.65;;
39924;SDS011;25592;49.986;11.618;2022-08-21T02:24:02;29.30;;;16.85;;
39924;SDS011;25592;49.986;11.618;2022-08-21T02:26:47;30.05;;;17.63;;
39924;SDS011;25592;49.986;11.618;2022-08-21T02:29:33;28.83;;;17.45;;
39924;SDS011;25592;49.986;11.618;2022-08-21T02:32:18;26.00;;;17.10;;
39924;SDS011;25592;49.986;11.618;2022-08-21T02:35:03;27.77;;;17.00;;
39924;SDS011;25592;49.986;11.618;2022-08-21T02:37:51;26.13;;;17.60;;
39924;SDS011;25592;49.986;11.618;2022-08-21T02:40:40;27.52;;;18.73;;
39924;SDS011;25592;49.986;11.618;2022-08-21T02:43:32;31.33;;;18.40;;
39924;SDS011;25592;49.986;11.618;2022-08-21T02:46:18;27.20;;;18.45;;
39924;SDS011;25592;49.986;11.618;2022-08-21T02:49:04;59.70;;;19.05;;
39924;SDS011;25592;49.986;11.618;2022-08-21T02:51:50;27.58;;;19.08;;
39924;SDS011;25592;49.986;11.618;2022-08-21T02:54:35;27.35;;;18.30;;
39924;SDS011;25592;49.986;11.618;2022-08-21T02:57:20;30.08;;;18.55;;
39924;SDS011;25592;49.986;11.618;2022-08-21T03:00:06;28.70;;;20.33;;
39924;SDS011;25592;49.986;11.618;2022-08-21T03:02:54;28.13;;;18.42;;
39924;SDS011;25592;49.986;11.618;2022-08-21T03:05:41;28.23;;;18.33;;
39924;SDS011;25592;49.986;11.618;2022-08-21T03:08:27;29.33;;;18.77;;
39924;SDS011;25592;49.986;11.618;2022-08-21T03:11:13;28.90;;;19.80;;
39924;SDS011;25592;49.986;11.618;2022-08-21T03:13:59;34.83;;;20.58;;
39924;SDS011;25592;49.986;11.618;2022-08-21T03:16:44;34.10;;;21.60;;
39924;SDS011;25592;49.986;11.618;2022-08-21T03:19:30;30.63;;;21.15;;
39924;SDS011;25592;49.986;11.618;2022-08-21T03:22:15;31.92;;;20.67;;
39924;SDS011;25592;49.986;11.618;2022-08-21T03:25:02;29.77;;;19.70;;
39924;SDS011;25592;49.986;11.618;2022-08-21T03:27:50;31.70;;;20.63;;
39924;SDS011;25592;49.986;11.618;2022-08-21T03:30:43;31.02;;;20.55;;
39924;SDS011;25592;49.986;11.618;2022-08-21T03:33:29;31.45;;;19.90;;
39924;SDS011;25592;49.986;11.618;2022-08-21T03:36:15;28.10;;;19.52;;
39924;SDS011;25592;49.986;11.618;2022-08-21T03:39:00;25.55;;;17.88;;
39924;SDS011;25592;49.986;11.618;2022-08-21T03:41:46;26.42;;;18.55;;
39924;SDS011;25592;49.986;11.618;2022-08-21T03:44:31;27.17;;;18.88;;
39924;SDS011;25592;49.986;11.618;2022-08-21T03:47:17;28.95;;;19.23;;
39924;SDS011;25592;49.986;11.618;2022-08-21T03:50:03;34.25;;;19.00;;
39924;SDS011;25592;49.986;11.618;2022-08-21T03:52:49;27.02;;;19.83;;
39924;SDS011;25592;49.986;11.618;2022-08-21T03:55:35;28.95;;;19.27;;
39924;SDS011;25592;49.986;11.618;2022-08-21T03:58:22;25.85;;;18.05;;
39924;SDS011;25592;49.986;11.618;2022-08-21T04:01:09;25.10;;;17.90;;
39924;SDS011;25592;49.986;11.618;2022-08-21T04:03:55;25.55;;;17.67;;
39924;SDS011;25592;49.986;11.618;2022-08-21T04:06:40;24.20;;;17.90;;
39924;SDS011;25592;49.986;11.618;2022-08-21T04:09:26;22.73;;;17.02;;
39924;SDS011;25592;49.986;11.618;2022-08-21T04:12:11;23.45;;;16.50;;
39924;SDS011;25592;49.986;11.618;2022-08-21T04:14:56;23.92;;;16.30;;
39924;SDS011;25592;49.986;11.618;2022-08-21T04:17:42;25.40;;;17.45;;
39924;SDS011;25592;49.986;11.618;2022-08-21T04:20:27;26.77;;;18.27;;
39924;SDS011;25592;49.986;11.618;2022-08-21T04:23:12;23.85;;;16.75;;
39924;SDS011;25592;49.986;11.618;2022-08-21T04:26:09;23.58;;;16.48;;
39924;SDS011;25592;49.986;11.618;2022-08-21T04:28:54;23.10;;;16.77;;
39924;SDS011;25592;49.986;11.618;2022-08-21T04:31:42;27.23;;;18.35;;
39924;SDS011;25592;49.986;11.618;2022-08-21T04:34:28;25.08;;;17.77;;
39924;SDS011;25592;49.986;11.618;2022-08-21T04:37:13;25.52;;;18.42;;
39924;SDS011;25592;49.986;11.618;2022-08-21T04:40:00;26.15;;;18.00;;
39924;SDS011;25592;49.986;11.618;2022-08-21T04:42:51;23.30;;;17.27;;
39924;SDS011;25592;49.986;11.618;2022-08-21T04:48:25;27.95;;;17.95;;
39924;SDS011;25592;49.986;11.618;2022-08-21T04:51:13;25.08;;;17.65;;
39924;SDS011;25592;49.986;11.618;2022-08-21T04:54:17;22.38;;;16.33;;
39924;SDS011;25592;49.986;11.618;2022-08-21T04:57:06;25.42;;;17.90;;
39924;SDS011;25592;49.986;11.618;2022-08-21T04:59:54;30.65;;;19.25;;
39924;SDS011;25592;49.986;11.618;2022-08-21T05:02:40;28.50;;;18.42;;
39924;SDS011;25592;49.986;11.618;2022-08-21T05:05:27;27.80;;;18.27;;
39924;SDS011;25592;49.986;11.618;2022-08-21T05:08:14;30.35;;;20.35;;
39924;SDS011;25592;49.986;11.618;2022-08-21T05:11:04;26.95;;;19.23;;
39924;SDS011;25592;49.986;11.618;2022-08-21T05:13:49;29.33;;;18.38;;
39924;SDS011;25592;49.986;11.618;2022-08-21T05:16:41;24.07;;;17.50;;
39924;SDS011;25592;49.986;11.618;2022-08-21T05:19:28;20.33;;;14.30;;
39924;SDS011;25592;49.986;11.618;2022-08-21T05:22:18;23.67;;;16.83;;
39924;SDS011;25592;49.986;11.618;2022-08-21T05:25:07;22.77;;;15.38;;
39924;SDS011;25592;49.986;11.618;2022-08-21T05:27:54;21.48;;;14.43;;
39924;SDS011;25592;49.986;11.618;2022-08-21T05:30:44;21.63;;;14.80;;
39924;SDS011;25592;49.986;11.618;2022-08-21T05:33:29;21.17;;;15.70;;
39924;SDS011;25592;49.986;11.618;2022-08-21T05:36:16;21.88;;;15.70;;
39924;SDS011;25592;49.986;11.618;2022-08-21T05:39:02;20.70;;;15.27;;
39924;SDS011;25592;49.986;11.618;2022-08-21T05:41:48;16.75;;;12.82;;
39924;SDS011;25592;49.986;11.618;2022-08-21T05:44:34;22.05;;;14.68;;
39924;SDS011;25592;49.986;11.618;2022-08-21T05:47:19;18.83;;;14.20;;
39924;SDS011;25592;49.986;11.618;2022-08-21T05:50:05;19.42;;;13.32;;
39924;SDS011;25592;49.986;11.618;2022-08-21T05:52:50;21.40;;;13.82;;
39924;SDS011;25592;49.986;11.618;2022-08-21T05:55:40;19.77;;;14.68;;
39924;SDS011;25592;49.986;11.618;2022-08-21T05:58:31;18.30;;;14.13;;
39924;SDS011;25592;49.986;11.618;2022-08-21T06:01:17;19.08;;;14.05;;
39924;SDS011;25592;49.986;11.618;2022-08-21T06:04:03;15.98;;;12.05;;
39924;SDS011;25592;49.986;11.618;2022-08-21T06:06:48;18.50;;;13.43;;
39924;SDS011;25592;49.986;11.618;2022-08-21T06:09:33;24.20;;;14.50;;
39924;SDS011;25592;49.986;11.618;2022-08-21T06:12:19;21.33;;;15.20;;
39924;SDS011;25592;49.986;11.618;2022-08-21T06:15:04;21.42;;;15.02;;
39924;SDS011;25592;49.986;11.618;2022-08-21T06:17:51;22.90;;;15.43;;
39924;SDS011;25592;49.986;11.618;2022-08-21T06:20:38;20.40;;;15.82;;
39924;SDS011;25592;49.986;11.618;2022-08-21T06:23:23;22.17;;;15.50;;
39924;SDS011;25592;49.986;11.618;2022-08-21T06:26:17;20.83;;;14.60;;
39924;SDS011;25592;49.986;11.618;2022-08-21T06:29:02;18.20;;;13.48;;
39924;SDS011;25592;49.986;11.618;2022-08-21T06:31:48;21.45;;;14.63;;
39924;SDS011;25592;49.986;11.618;2022-08-21T06:34:36;22.38;;;15.13;;
39924;SDS011;25592;49.986;11.618;2022-08-21T06:37:24;17.98;;;13.40;;
39924;SDS011;25592;49.986;11.618;2022-08-21T06:40:10;30.63;;;17.45;;
39924;SDS011;25592;49.986;11.618;2022-08-21T06:42:57;24.95;;;17.63;;
39924;SDS011;25592;49.986;11.618;2022-08-21T06:45:45;26.67;;;17.55;;
39924;SDS011;25592;49.986;11.618;2022-08-21T06:48:30;28.25;;;17.58;;
39924;SDS011;25592;49.986;11.618;2022-08-21T06:51:17;23.65;;;17.17;;
39924;SDS011;25592;49.986;11.618;2022-08-21T06:54:03;21.40;;;14.60;;
39924;SDS011;25592;49.986;11.618;2022-08-21T06:56:48;25.05;;;17.58;;
39924;SDS011;25592;49.986;11.618;2022-08-21T06:59:34;23.05;;;16.23;;
39924;SDS011;25592;49.986;11.618;2022-08-21T07:02:19;26.42;;;17.33;;
39924;SDS011;25592;49.986;11.618;2022-08-21T07:05:04;25.63;;;18.27;;
39924;SDS011;25592;49.986;11.618;2022-08-21T07:08:01;24.60;;;17.55;;
39924;SDS011;25592;49.986;11.618;2022-08-21T07:10:47;24.52;;;16.98;;
39924;SDS011;25592;49.986;11.618;2022-08-21T07:13:33;23.98;;;17.38;;
39924;SDS011;25592;49.986;11.618;2022-08-21T07:16:19;21.45;;;16.02;;
39924;SDS011;25592;49.986;11.618;2022-08-21T07:19:05;20.30;;;15.77;;
39924;SDS011;25592;49.986;11.618;2022-08-21T07:21:50;20.58;;;15.68;;
39924;SDS011;25592;49.986;11.618;2022-08-21T07:24:37;24.05;;;17.13;;
39924;SDS011;25592;49.986;11.618;2022-08-21T07:27:23;21.90;;;15.55;;
39924;SDS011;25592;49.986;11.618;2022-08-21T07:30:08;21.10;;;16.05;;
39924;SDS011;25592;49.986;11.618;2022-08-21T07:32:54;23.25;;;17.60;;
39924;SDS011;25592;49.986;11.618;2022-08-21T07:35:39;24.08;;;17.60;;
39924;SDS011;25592;49.986;11.618;2022-08-21T07:38:25;25.33;;;18.17;;
39924;SDS011;25592;49.986;11.618;2022-08-21T07:41:16;26.65;;;19.35;;
39924;SDS011;25592;49.986;11.618;2022-08-21T07:44:03;25.97;;;18.63;;
39924;SDS011;25592;49.986;11.618;2022-08-21T07:46:50;32.42;;;20.98;;
39924;SDS011;25592;49.986;11.618;2022-08-21T07:49:35;30.40;;;20.00;;
39924;SDS011;25592;49.986;11.618;2022-08-21T07:52:21;23.13;;;17.15;;
39924;SDS011;25592;49.986;11.618;2022-08-21T07:55:07;22.88;;;17.15;;
39924;SDS011;25592;49.986;11.618;2022-08-21T07:57:55;23.83;;;18.25;;
39924;SDS011;25592;49.986;11.618;2022-08-21T08:00:40;23.45;;;16.77;;
39924;SDS011;25592;49.986;11.618;2022-08-21T08:03:26;28.00;;;18.50;;
39924;SDS011;25592;49.986;11.618;2022-08-21T08:06:13;24.75;;;17.17;;
39924;SDS011;25592;49.986;11.618;2022-08-21T08:08:58;26.42;;;17.67;;
39924;SDS011;25592;49.986;11.618;2022-08-21T08:11:43;25.02;;;17.63;;
39924;SDS011;25592;49.986;11.618;2022-08-21T08:14:29;22.42;;;17.40;;
39924;SDS011;25592;49.986;11.618;2022-08-21T08:17:15;21.35;;;15.73;;
39924;SDS011;25592;49.986;11.618;2022-08-21T08:20:01;23.08;;;17.13;;
39924;SDS011;25592;49.986;11.618;2022-08-21T08:22:47;26.10;;;18.10;;
39924;SDS011;25592;49.986;11.618;2022-08-21T08:25:34;23.50;;;17.05;;
39924;SDS011;25592;49.986;11.618;2022-08-21T08:28:20;20.35;;;16.92;;
39924;SDS011;25592;49.986;11.618;2022-08-21T08:31:06;20.65;;;15.73;;
39924;SDS011;25592;49.986;11.618;2022-08-21T08:33:51;28.35;;;18.00;;
39924;SDS011;25592;49.986;11.618;2022-08-21T08:36:36;20.30;;;15.18;;
39924;SDS011;25592;49.986;11.618;2022-08-21T08:39:25;23.92;;;16.35;;
39924;SDS011;25592;49.986;11.618;2022-08-21T08:42:15;21.30;;;15.57;;
39924;SDS011;25592;49.986;11.618;2022-08-21T08:45:19;21.85;;;16.33;;
39924;SDS011;25592;49.986;11.618;2022-08-21T08:48:12;20.40;;;15.27;;
39924;SDS011;25592;49.986;11.618;2022-08-21T08:50:59;20.00;;;14.73;;
39924;SDS011;25592;49.986;11.618;2022-08-21T08:53:58;23.38;;;15.52;;
39924;SDS011;25592;49.986;11.618;2022-08-21T08:56:47;21.17;;;14.98;;
39924;SDS011;25592;49.986;11.618;2022-08-21T08:59:38;23.40;;;14.85;;
39924;SDS011;25592;49.986;11.618;2022-08-21T09:02:27;22.42;;;15.13;;
39924;SDS011;25592;49.986;11.618;2022-08-21T09:05:24;20.17;;;13.98;;
39924;SDS011;25592;49.986;11.618;2022-08-21T09:08:40;18.10;;;13.27;;
39924;SDS011;25592;49.986;11.618;2022-08-21T09:17:53;18.13;;;13.65;;
39924;SDS011;25592;49.986;11.618;2022-08-21T09:24:00;15.38;;;11.55;;
39924;SDS011;25592;49.986;11.618;2022-08-21T09:27:03;16.45;;;10.80;;
39924;SDS011;25592;49.986;11.618;2022-08-21T09:29:53;14.68;;;10.00;;
39924;SDS011;25592;49.986;11.618;2022-08-21T09:32:39;14.00;;;9.30;;
39924;SDS011;25592;49.986;11.618;2022-08-21T09:35:24;15.88;;;10.63;;
39924;SDS011;25592;49.986;11.618;2022-08-21T09:38:10;13.32;;;8.77;;
39924;SDS011;25592;49.986;11.618;2022-08-21T09:41:08;10.88;;;8.68;;
39924;SDS011;25592;49.986;11.618;2022-08-21T09:43:54;11.95;;;8.27;;
39924;SDS011;25592;49.986;11.618;2022-08-21T09:46:49;11.52;;;8.50;;
39924;SDS011;25592;49.986;11.618;2022-08-21T09:49:37;11.63;;;7.88;;
39924;SDS011;25592;49.986;11.618;2022-08-21T09:52:24;14.07;;;8.75;;
39924;SDS011;25592;49.986;11.618;2022-08-21T09:55:14;9.75;;;7.55;;
39924;SDS011;25592;49.986;11.618;2022-08-21T09:58:40;10.13;;;7.00;;
39924;SDS011;25592;49.986;11.618;2022-08-21T10:01:29;8.23;;;6.68;;
39924;SDS011;25592;49.986;11.618;2022-08-21T10:04:14;10.77;;;8.20;;
39924;SDS011;25592;49.986;11.618;2022-08-21T10:07:07;12.70;;;8.93;;
39924;SDS011;25592;49.986;11.618;2022-08-21T10:10:06;11.48;;;8.77;;
39924;SDS011;25592;49.986;11.618;2022-08-21T10:15:59;11.73;;;8.68;;
39924;SDS011;25592;49.986;11.618;2022-08-21T10:22:05;12.23;;;7.28;;
39924;SDS011;25592;49.986;11.618;2022-08-21T10:25:05;10.68;;;8.23;;
39924;SDS011;25592;49.986;11.618;2022-08-21T10:28:07;9.95;;;7.53;;
39924;SDS011;25592;49.986;11.618;2022-08-21T10:31:18;8.77;;;7.10;;
39924;SDS011;25592;49.986;11.618;2022-08-21T10:34:21;10.48;;;7.82;;
39924;SDS011;25592;49.986;11.618;2022-08-21T10:52:54;8.45;;;6.20;;
39924;SDS011;25592;49.986;11.618;2022-08-21T10:56:05;8.52;;;6.03;;
39924;SDS011;25592;49.986;11.618;2022-08-21T11:02:15;9.25;;;6.32;;
39924;SDS011;25592;49.986;11.618;2022-08-21T11:05:33;6.45;;;5.25;;
39924;SDS011;25592;49.986;11.618;2022-08-21T11:08:43;8.13;;;5.55;;
39924;SDS011;25592;49.986;11.618;2022-08-21T11:11:33;7.72;;;6.13;;
39924;SDS011;25592;49.986;11.618;2022-08-21T11:14:34;7.05;;;5.32;;
39924;SDS011;25592;49.986;11.618;2022-08-21T11:17:29;5.93;;;4.50;;
39924;SDS011;25592;49.986;11.618;2022-08-21T11:20:22;6.43;;;4.90;;
39924;SDS011;25592;49.986;11.618;2022-08-21T11:23:22;6.05;;;4.43;;
39924;SDS011;25592;49.986;11.618;2022-08-21T11:26:23;5.45;;;4.45;;
39924;SDS011;25592;49.986;11.618;2022-08-21T11:29:21;7.38;;;4.82;;
39924;SDS011;25592;49.986;11.618;2022-08-21T11:38:41;5.93;;;4.40;;
39924;SDS011;25592;49.986;11.618;2022-08-21T11:41:32;7.15;;;4.13;;
39924;SDS011;25592;49.986;11.618;2022-08-21T11:45:13;5.70;;;4.20;;
39924;SDS011;25592;49.986;11.618;2022-08-21T11:50:51;6.85;;;4.32;;
39924;SDS011;25592;49.986;11.618;2022-08-21T11:53:48;5.70;;;4.07;;
39924;SDS011;25592;49.986;11.618;2022-08-21T11:56:53;4.38;;;3.40;;
39924;SDS011;25592;49.986;11.618;2022-08-21T11:59:49;3.55;;;2.97;;
39924;SDS011;25592;49.986;11.618;2022-08-21T12:02:45;4.28;;;3.50;;
39924;SDS011;25592;49.986;11.618;2022-08-21T12:05:41;3.88;;;2.67;;
39924;SDS011;25592;49.986;11.618;2022-08-21T12:11:24;4.53;;;3.35;;
39924;SDS011;25592;49.986;11.618;2022-08-21T12:14:15;3.88;;;3.03;;
39924;SDS011;25592;49.986;11.618;2022-08-21T12:17:05;5.05;;;2.72;;
39924;SDS011;25592;49.986;11.618;2022-08-21T12:20:02;4.07;;;3.10;;
39924;SDS011;25592;49.986;11.618;2022-08-21T12:23:04;5.07;;;2.70;;
39924;SDS011;25592;49.986;11.618;2022-08-21T12:26:10;4.28;;;3.00;;
39924;SDS011;25592;49.986;11.618;2022-08-21T12:29:03;3.92;;;2.90;;
39924;SDS011;25592;49.986;11.618;2022-08-21T12:32:00;4.88;;;2.90;;
39924;SDS011;25592;49.986;11.618;2022-08-21T12:38:17;5.07;;;3.20;;
39924;SDS011;25592;49.986;11.618;2022-08-21T12:41:09;7.75;;;3.85;;
39924;SDS011;25592;49.986;11.618;2022-08-21T12:44:08;9.55;;;4.38;;
39924;SDS011;25592;49.986;11.618;2022-08-21T12:47:03;5.22;;;3.38;;
39924;SDS011;25592;49.986;11.618;2022-08-21T12:50:15;4.38;;;3.33;;
39924;SDS011;25592;49.986;11.618;2022-08-21T12:56:08;5.05;;;3.08;;
39924;SDS011;25592;49.986;11.618;2022-08-21T12:58:57;5.32;;;2.90;;
39924;SDS011;25592;49.986;11.618;2022-08-21T13:01:50;3.83;;;2.88;;
39924;SDS011;25592;49.986;11.618;2022-08-21T13:04:40;6.43;;;3.35;;
39924;SDS011;25592;49.986;11.618;2022-08-21T13:07:29;7.70;;;4.00;;
39924;SDS011;25592;49.986;11.618;2022-08-21T13:13:17;4.53;;;3.67;;
39924;SDS011;25592;49.986;11.618;2022-08-21T13:16:11;6.03;;;3.75;;
39924;SDS011;25592;49.986;11.618;2022-08-21T13:19:05;5.18;;;3.40;;
39924;SDS011;25592;49.986;11.618;2022-08-21T13:21:51;8.60;;;4.10;;
39924;SDS011;25592;49.986;11.618;2022-08-21T13:24:39;9.18;;;3.60;;
39924;SDS011;25592;49.986;11.618;2022-08-21T13:27:28;9.20;;;4.10;;
39924;SDS011;25592;49.986;11.618;2022-08-21T13:30:19;5.22;;;3.67;;
39924;SDS011;25592;49.986;11.618;2022-08-21T13:33:05;4.53;;;3.42;;
39924;SDS011;25592;49.986;11.618;2022-08-21T13:38:47;4.35;;;3.35;;
39924;SDS011;25592;49.986;11.618;2022-08-21T13:41:34;5.13;;;3.63;;
39924;SDS011;25592;49.986;11.618;2022-08-21T13:44:22;4.13;;;3.00;;
39924;SDS011;25592;49.986;11.618;2022-08-21T13:47:28;4.40;;;3.10;;
39924;SDS011;25592;49.986;11.618;2022-08-21T13:50:14;4.55;;;3.00;;
39924;SDS011;25592;49.986;11.618;2022-08-21T13:53:02;4.50;;;3.42;;
39924;SDS011;25592;49.986;11.618;2022-08-21T13:55:50;4.35;;;3.10;;
39924;SDS011;25592;49.986;11.618;2022-08-21T13:58:43;4.85;;;3.17;;
39924;SDS011;25592;49.986;11.618;2022-08-21T14:01:34;6.68;;;3.50;;
39924;SDS011;25592;49.986;11.618;2022-08-21T14:04:26;4.72;;;3.33;;
39924;SDS011;25592;49.986;11.618;2022-08-21T14:07:20;22.33;;;4.20;;
39924;SDS011;25592;49.986;11.618;2022-08-21T14:10:21;3.90;;;3.20;;
39924;SDS011;25592;49.986;11.618;2022-08-21T14:13:14;4.10;;;2.95;;
39924;SDS011;25592;49.986;11.618;2022-08-21T14:16:22;4.30;;;3.15;;
39924;SDS011;25592;49.986;11.618;2022-08-21T14:19:24;5.55;;;3.10;;
39924;SDS011;25592;49.986;11.618;2022-08-21T14:22:28;3.38;;;2.67;;
39924;SDS011;25592;49.986;11.618;2022-08-21T14:25:36;5.05;;;2.65;;
39924;SDS011;25592;49.986;11.618;2022-08-21T14:28:32;4.90;;;3.33;;
39924;SDS011;25592;49.986;11.618;2022-08-21T14:31:20;4.10;;;2.60;;
39924;SDS011;25592;49.986;11.618;2022-08-21T14:34:06;3.47;;;2.67;;
39924;SDS011;25592;49.986;11.618;2022-08-21T14:37:03;4.22;;;2.60;;
39924;SDS011;25592;49.986;11.618;2022-08-21T14:39:49;4.13;;;2.58;;
39924;SDS011;25592;49.986;11.618;2022-08-21T14:42:35;4.43;;;2.63;;
39924;SDS011;25592;49.986;11.618;2022-08-21T14:45:25;3.70;;;2.67;;
39924;SDS011;25592;49.986;11.618;2022-08-21T14:48:12;4.63;;;2.70;;
39924;SDS011;25592;49.986;11.618;2022-08-21T14:50:58;4.30;;;2.78;;
39924;SDS011;25592;49.986;11.618;2022-08-21T14:53:44;4.20;;;2.95;;
39924;SDS011;25592;49.986;11.618;2022-08-21T14:56:31;3.50;;;2.53;;
39924;SDS011;25592;49.986;11.618;2022-08-21T14:59:17;3.55;;;2.75;;
39924;SDS011;25592;49.986;11.618;2022-08-21T15:02:04;5.47;;;2.90;;
39924;SDS011;25592;49.986;11.618;2022-08-21T15:04:50;5.35;;;3.03;;
39924;SDS011;25592;49.986;11.618;2022-08-21T15:07:35;4.30;;;2.70;;
39924;SDS011;25592;49.986;11.618;2022-08-21T15:10:22;5.45;;;3.25;;
39924;SDS011;25592;49.986;11.618;2022-08-21T15:13:08;4.30;;;2.80;;
39924;SDS011;25592;49.986;11.618;2022-08-21T15:15:54;5.80;;;3.28;;
39924;SDS011;25592;49.986;11.618;2022-08-21T15:18:40;4.40;;;2.95;;
39924;SDS011;25592;49.986;11.618;2022-08-21T15:21:26;4.47;;;3.00;;
39924;SDS011;25592;49.986;11.618;2022-08-21T15:24:13;5.00;;;3.08;;
39924;SDS011;25592;49.986;11.618;2022-08-21T15:26:59;3.60;;;2.60;;
39924;SDS011;25592;49.986;11.618;2022-08-21T15:29:46;3.67;;;2.88;;
39924;SDS011;25592;49.986;11.618;2022-08-21T15:32:32;3.92;;;2.83;;
39924;SDS011;25592;49.986;11.618;2022-08-21T15:35:17;5.18;;;3.35;;
39924;SDS011;25592;49.986;11.618;2022-08-21T15:38:03;4.63;;;3.00;;
39924;SDS011;25592;49.986;11.618;2022-08-21T15:40:48;5.07;;;2.85;;
39924;SDS011;25592;49.986;11.618;2022-08-21T15:43:46;4.80;;;2.88;;
39924;SDS011;25592;49.986;11.618;2022-08-21T15:46:36;6.13;;;2.92;;
39924;SDS011;25592;49.986;11.618;2022-08-21T15:49:22;3.70;;;2.78;;
39924;SDS011;25592;49.986;11.618;2022-08-21T15:52:07;3.50;;;2.80;;
39924;SDS011;25592;49.986;11.618;2022-08-21T15:54:53;4.30;;;3.30;;
39924;SDS011;25592;49.986;11.618;2022-08-21T15:57:42;4.28;;;3.00;;
39924;SDS011;25592;49.986;11.618;2022-08-21T16:00:42;6.90;;;2.92;;
39924;SDS011;25592;49.986;11.618;2022-08-21T16:03:29;3.78;;;2.95;;
39924;SDS011;25592;49.986;11.618;2022-08-21T16:06:14;5.72;;;3.05;;
39924;SDS011;25592;49.986;11.618;2022-08-21T16:09:00;4.75;;;2.97;;
39924;SDS011;25592;49.986;11.618;2022-08-21T16:11:45;3.90;;;3.00;;
39924;SDS011;25592;49.986;11.618;2022-08-21T16:14:31;3.78;;;3.08;;
39924;SDS011;25592;49.986;11.618;2022-08-21T16:17:18;3.90;;;3.20;;
39924;SDS011;25592;49.986;11.618;2022-08-21T16:20:11;5.57;;;3.00;;
39924;SDS011;25592;49.986;11.618;2022-08-21T16:22:58;4.05;;;3.05;;
39924;SDS011;25592;49.986;11.618;2022-08-21T16:25:43;4.32;;;3.00;;
39924;SDS011;25592;49.986;11.618;2022-08-21T16:28:29;3.80;;;2.80;;
39924;SDS011;25592;49.986;11.618;2022-08-21T16:31:16;4.55;;;3.05;;
39924;SDS011;25592;49.986;11.618;2022-08-21T16:34:01;4.75;;;3.35;;
39924;SDS011;25592;49.986;11.618;2022-08-21T16:36:46;7.70;;;3.10;;
39924;SDS011;25592;49.986;11.618;2022-08-21T16:39:32;4.57;;;3.03;;
39924;SDS011;25592;49.986;11.618;2022-08-21T16:42:18;6.03;;;3.08;;
39924;SDS011;25592;49.986;11.618;2022-08-21T16:45:08;6.65;;;2.80;;
39924;SDS011;25592;49.986;11.618;2022-08-21T16:47:55;3.92;;;2.70;;
39924;SDS011;25592;49.986;11.618;2022-08-21T16:50:40;5.72;;;2.80;;
39924;SDS011;25592;49.986;11.618;2022-08-21T16:53:26;6.22;;;2.78;;
39924;SDS011;25592;49.986;11.618;2022-08-21T16:56:12;4.10;;;3.08;;
39924;SDS011;25592;49.986;11.618;2022-08-21T16:58:59;7.93;;;3.70;;
39924;SDS011;25592;49.986;11.618;2022-08-21T17:01:44;4.93;;;2.88;;
39924;SDS011;25592;49.986;11.618;2022-08-21T17:04:30;4.32;;;3.00;;
39924;SDS011;25592;49.986;11.618;2022-08-21T17:07:16;4.32;;;2.92;;
39924;SDS011;25592;49.986;11.618;2022-08-21T17:10:01;8.30;;;3.58;;
39924;SDS011;25592;49.986;11.618;2022-08-21T17:12:49;7.97;;;3.20;;
39924;SDS011;25592;49.986;11.618;2022-08-21T17:15:39;4.35;;;3.20;;
39924;SDS011;25592;49.986;11.618;2022-08-21T17:18:25;5.15;;;3.60;;
39924;SDS011;25592;49.986;11.618;2022-08-21T17:21:11;4.80;;;3.38;;
39924;SDS011;25592;49.986;11.618;2022-08-21T17:24:02;8.43;;;3.38;;
39924;SDS011;25592;49.986;11.618;2022-08-21T17:26:48;7.10;;;3.60;;
39924;SDS011;25592;49.986;11.618;2022-08-21T17:29:34;5.35;;;3.10;;